sensor_id;sensor_type;location;lat;lon;timestamp;P1;durP1;ratioP1;P2;durP2;ratioP2
22863;SDS011;11599;49.882;8.680;2023-06-14T00:03:25;10.03;;;4.40;;
22863;SDS011;11599;49.882;8.680;2023-06-14T00:13:46;6.00;;;4.50;;
22863;SDS011;11599;49.882;8.680;2023-06-14T00:24:09;6.80;;;4.37;;
22863;SDS011;11599;49.882;8.680;2023-06-14T00:34:30;7.50;;;4.37;;
22863;SDS011;11599;49.882;8.680;2023-06-14T00:44:53;9.40;;;4.83;;
22863;SDS011;11599;49.882;8.680;2023-06-14T00:55:21;7.27;;;4.40;;
22863;SDS011;11599;49.882;8.680;2023-06-14T01:05:43;7.80;;;4.37;;
22863;SDS011;11599;49.882;8.680;2023-06-14T01:16:07;7.83;;;4.40;;
22863;SDS011;11599;49.882;8.680;2023-06-14T01:26:30;8.50;;;4.80;;
22863;SDS011;11599;49.882;8.680;2023-06-14T01:36:53;6.70;;;4.50;;
22863;SDS011;11599;49.882;8.680;2023-06-14T01:47:17;9.50;;;4.53;;
22863;SDS011;11599;49.882;8.680;2023-06-14T01:57:38;7.40;;;5.07;;
22863;SDS011;11599;49.882;8.680;2023-06-14T02:08:01;9.40;;;5.10;;
22863;SDS011;11599;49.882;8.680;2023-06-14T02:18:23;11.27;;;4.30;;
22863;SDS011;11599;49.882;8.680;2023-06-14T02:28:46;9.30;;;4.60;;
22863;SDS011;11599;49.882;8.680;2023-06-14T02:39:07;8.53;;;4.57;;
22863;SDS011;11599;49.882;8.680;2023-06-14T02:49:31;7.80;;;4.07;;
22863;SDS011;11599;49.882;8.680;2023-06-14T02:59:53;6.93;;;4.20;;
22863;SDS011;11599;49.882;8.680;2023-06-14T03:10:17;10.93;;;4.53;;
22863;SDS011;11599;49.882;8.680;2023-06-14T03:20:39;7.50;;;4.60;;
22863;SDS011;11599;49.882;8.680;2023-06-14T03:31:03;7.70;;;4.43;;
22863;SDS011;11599;49.882;8.680;2023-06-14T03:41:26;6.87;;;4.37;;
22863;SDS011;11599;49.882;8.680;2023-06-14T03:51:50;6.03;;;4.17;;
22863;SDS011;11599;49.882;8.680;2023-06-14T04:02:14;8.30;;;4.30;;
22863;SDS011;11599;49.882;8.680;2023-06-14T04:12:39;7.83;;;4.40;;
22863;SDS011;11599;49.882;8.680;2023-06-14T04:23:10;8.93;;;4.13;;
22863;SDS011;11599;49.882;8.680;2023-06-14T04:33:34;15.10;;;4.67;;
22863;SDS011;11599;49.882;8.680;2023-06-14T04:44:03;7.50;;;4.03;;
22863;SDS011;11599;49.882;8.680;2023-06-14T04:54:31;14.93;;;4.13;;
22863;SDS011;11599;49.882;8.680;2023-06-14T05:04:55;6.17;;;4.30;;
22863;SDS011;11599;49.882;8.680;2023-06-14T05:15:19;9.07;;;4.20;;
22863;SDS011;11599;49.882;8.680;2023-06-14T05:25:45;13.43;;;3.93;;
22863;SDS011;11599;49.882;8.680;2023-06-14T05:36:08;9.93;;;4.10;;
22863;SDS011;11599;49.882;8.680;2023-06-14T05:46:29;11.10;;;3.83;;
22863;SDS011;11599;49.882;8.680;2023-06-14T05:56:53;9.07;;;3.57;;
22863;SDS011;11599;49.882;8.680;2023-06-14T06:07:14;17.77;;;3.87;;
22863;SDS011;11599;49.882;8.680;2023-06-14T06:17:37;10.67;;;3.93;;
22863;SDS011;11599;49.882;8.680;2023-06-14T06:27:59;23.15;;;4.20;;
22863;SDS011;11599;49.882;8.680;2023-06-14T06:38:22;11.45;;;4.13;;
22863;SDS011;11599;49.882;8.680;2023-06-14T06:48:43;6.45;;;3.58;;
22863;SDS011;11599;49.882;8.680;2023-06-14T06:59:06;8.82;;;4.57;;
22863;SDS011;11599;49.882;8.680;2023-06-14T07:09:28;9.80;;;3.58;;
22863;SDS011;11599;49.882;8.680;2023-06-14T07:19:51;11.80;;;3.55;;
22863;SDS011;11599;49.882;8.680;2023-06-14T07:30:13;6.10;;;3.40;;
22863;SDS011;11599;49.882;8.680;2023-06-14T07:40:36;9.05;;;3.50;;
22863;SDS011;11599;49.882;8.680;2023-06-14T07:50:58;3.63;;;2.88;;
22863;SDS011;11599;49.882;8.680;2023-06-14T08:01:22;5.22;;;3.03;;
22863;SDS011;11599;49.882;8.680;2023-06-14T08:11:45;5.95;;;2.70;;
22863;SDS011;11599;49.882;8.680;2023-06-14T08:22:08;6.30;;;3.15;;
22863;SDS011;11599;49.882;8.680;2023-06-14T08:32:32;8.30;;;3.35;;
22863;SDS011;11599;49.882;8.680;2023-06-14T08:42:55;4.07;;;2.55;;
22863;SDS011;11599;49.882;8.680;2023-06-14T08:53:16;5.00;;;2.75;;
22863;SDS011;11599;49.882;8.680;2023-06-14T09:03:41;3.30;;;1.98;;
22863;SDS011;11599;49.882;8.680;2023-06-14T09:14:02;6.43;;;2.25;;
22863;SDS011;11599;49.882;8.680;2023-06-14T09:24:25;7.32;;;2.20;;
22863;SDS011;11599;49.882;8.680;2023-06-14T09:34:47;3.05;;;1.90;;
22863;SDS011;11599;49.882;8.680;2023-06-14T09:45:10;2.47;;;2.00;;
22863;SDS011;11599;49.882;8.680;2023-06-14T09:55:34;3.08;;;1.98;;
22863;SDS011;11599;49.882;8.680;2023-06-14T10:05:58;4.32;;;1.90;;
22863;SDS011;11599;49.882;8.680;2023-06-14T10:16:23;5.07;;;1.63;;
22863;SDS011;11599;49.882;8.680;2023-06-14T10:26:53;3.17;;;1.60;;
22863;SDS011;11599;49.882;8.680;2023-06-14T10:37:15;7.40;;;1.90;;
22863;SDS011;11599;49.882;8.680;2023-06-14T10:47:38;4.03;;;1.70;;
22863;SDS011;11599;49.882;8.680;2023-06-14T10:58:00;3.00;;;1.60;;
22863;SDS011;11599;49.882;8.680;2023-06-14T11:19:01;7.80;;;1.70;;
22863;SDS011;11599;49.882;8.680;2023-06-14T11:29:24;2.90;;;1.95;;
22863;SDS011;11599;49.882;8.680;2023-06-14T11:39:47;3.45;;;1.90;;
22863;SDS011;11599;49.882;8.680;2023-06-14T11:50:08;2.90;;;2.00;;
22863;SDS011;11599;49.882;8.680;2023-06-14T12:00:32;2.97;;;1.95;;
22863;SDS011;11599;49.882;8.680;2023-06-14T12:10:53;3.83;;;2.05;;
22863;SDS011;11599;49.882;8.680;2023-06-14T12:21:17;7.53;;;2.55;;
22863;SDS011;11599;49.882;8.680;2023-06-14T12:31:43;9.88;;;2.83;;
22863;SDS011;11599;49.882;8.680;2023-06-14T12:42:07;3.72;;;2.10;;
22863;SDS011;11599;49.882;8.680;2023-06-14T12:52:28;2.92;;;2.15;;
22863;SDS011;11599;49.882;8.680;2023-06-14T13:02:51;2.30;;;2.00;;
22863;SDS011;11599;49.882;8.680;2023-06-14T13:13:13;4.53;;;2.08;;
22863;SDS011;11599;49.882;8.680;2023-06-14T13:23:36;5.63;;;2.00;;
22863;SDS011;11599;49.882;8.680;2023-06-14T13:33:57;6.30;;;2.20;;
22863;SDS011;11599;49.882;8.680;2023-06-14T13:44:20;3.30;;;2.15;;
22863;SDS011;11599;49.882;8.680;2023-06-14T13:54:41;8.10;;;2.58;;
22863;SDS011;11599;49.882;8.680;2023-06-14T14:05:05;6.40;;;1.90;;
22863;SDS011;11599;49.882;8.680;2023-06-14T14:15:27;7.80;;;2.03;;
22863;SDS011;11599;49.882;8.680;2023-06-14T14:25:50;2.67;;;2.03;;
22863;SDS011;11599;49.882;8.680;2023-06-14T14:36:11;3.70;;;2.20;;
22863;SDS011;11599;49.882;8.680;2023-06-14T14:46:35;18.52;;;2.70;;
22863;SDS011;11599;49.882;8.680;2023-06-14T14:56:56;4.88;;;1.83;;
22863;SDS011;11599;49.882;8.680;2023-06-14T15:07:19;5.30;;;2.17;;
22863;SDS011;11599;49.882;8.680;2023-06-14T15:17:40;3.45;;;1.83;;
22863;SDS011;11599;49.882;8.680;2023-06-14T15:28:03;5.93;;;2.10;;
22863;SDS011;11599;49.882;8.680;2023-06-14T15:38:27;6.07;;;2.33;;
22863;SDS011;11599;49.882;8.680;2023-06-14T15:48:54;6.38;;;1.88;;
22863;SDS011;11599;49.882;8.680;2023-06-14T15:59:17;3.38;;;1.98;;
22863;SDS011;11599;49.882;8.680;2023-06-14T16:09:40;4.65;;;1.83;;
22863;SDS011;11599;49.882;8.680;2023-06-14T16:20:01;2.08;;;1.73;;
22863;SDS011;11599;49.882;8.680;2023-06-14T16:30:24;4.35;;;1.80;;
22863;SDS011;11599;49.882;8.680;2023-06-14T16:40:46;3.10;;;1.88;;
22863;SDS011;11599;49.882;8.680;2023-06-14T16:51:09;4.13;;;1.60;;
22863;SDS011;11599;49.882;8.680;2023-06-14T17:01:30;5.68;;;1.67;;
22863;SDS011;11599;49.882;8.680;2023-06-14T17:11:55;5.55;;;1.98;;
22863;SDS011;11599;49.882;8.680;2023-06-14T17:22:17;7.90;;;1.67;;
22863;SDS011;11599;49.882;8.680;2023-06-14T17:32:39;3.50;;;1.83;;
22863;SDS011;11599;49.882;8.680;2023-06-14T17:43:01;3.50;;;1.50;;
22863;SDS011;11599;49.882;8.680;2023-06-14T17:53:27;2.10;;;1.70;;
22863;SDS011;11599;49.882;8.680;2023-06-14T18:03:49;2.75;;;1.90;;
22863;SDS011;11599;49.882;8.680;2023-06-14T18:14:12;5.00;;;2.42;;
22863;SDS011;11599;49.882;8.680;2023-06-14T18:24:34;3.67;;;1.70;;
22863;SDS011;11599;49.882;8.680;2023-06-14T18:34:57;2.35;;;1.85;;
22863;SDS011;11599;49.882;8.680;2023-06-14T18:45:18;6.55;;;1.90;;
22863;SDS011;11599;49.882;8.680;2023-06-14T18:55:41;4.75;;;2.38;;
22863;SDS011;11599;49.882;8.680;2023-06-14T19:06:03;7.95;;;2.00;;
22863;SDS011;11599;49.882;8.680;2023-06-14T19:16:26;3.83;;;2.42;;
22863;SDS011;11599;49.882;8.680;2023-06-14T19:26:48;5.13;;;2.28;;
22863;SDS011;11599;49.882;8.680;2023-06-14T19:37:11;3.08;;;2.45;;
22863;SDS011;11599;49.882;8.680;2023-06-14T19:47:33;3.20;;;2.30;;
22863;SDS011;11599;49.882;8.680;2023-06-14T19:57:56;4.72;;;2.17;;
22863;SDS011;11599;49.882;8.680;2023-06-14T20:08:18;3.35;;;2.28;;
22863;SDS011;11599;49.882;8.680;2023-06-14T20:18:46;5.22;;;2.38;;
22863;SDS011;11599;49.882;8.680;2023-06-14T20:29:08;4.60;;;2.42;;
22863;SDS011;11599;49.882;8.680;2023-06-14T20:39:31;8.77;;;3.03;;
22863;SDS011;11599;49.882;8.680;2023-06-14T20:49:53;2.80;;;2.10;;
22863;SDS011;11599;49.882;8.680;2023-06-14T21:00:17;4.63;;;2.25;;
22863;SDS011;11599;49.882;8.680;2023-06-14T21:10:39;7.22;;;2.47;;
22863;SDS011;11599;49.882;8.680;2023-06-14T21:21:03;4.57;;;2.30;;
22863;SDS011;11599;49.882;8.680;2023-06-14T21:31:25;3.42;;;2.28;;
22863;SDS011;11599;49.882;8.680;2023-06-14T21:41:48;3.63;;;2.53;;
22863;SDS011;11599;49.882;8.680;2023-06-14T21:52:10;4.82;;;2.75;;
22863;SDS011;11599;49.882;8.680;2023-06-14T22:02:34;4.65;;;2.33;;
22863;SDS011;11599;49.882;8.680;2023-06-14T22:12:56;4.78;;;2.88;;
22863;SDS011;11599;49.882;8.680;2023-06-14T22:23:20;3.33;;;2.40;;
22863;SDS011;11599;49.882;8.680;2023-06-14T22:33:46;3.17;;;2.38;;
22863;SDS011;11599;49.882;8.680;2023-06-14T22:44:09;5.13;;;2.70;;
22863;SDS011;11599;49.882;8.680;2023-06-14T22:54:31;3.63;;;2.42;;
22863;SDS011;11599;49.882;8.680;2023-06-14T23:04:54;5.82;;;2.50;;
22863;SDS011;11599;49.882;8.680;2023-06-14T23:15:16;3.65;;;2.28;;
22863;SDS011;11599;49.882;8.680;2023-06-14T23:25:38;5.50;;;2.40;;
22863;SDS011;11599;49.882;8.680;2023-06-14T23:36:02;7.15;;;2.53;;
22863;SDS011;11599;49.882;8.680;2023-06-14T23:46:25;5.97;;;2.50;;
22863;SDS011;11599;49.882;8.680;2023-06-14T23:56:48;5.73;;;3.00;;
